メインページ
METAR-TAF:

METAR-TAF

空港 :

ダウンタウン・マンハッタン・ヘリポート

ニューヨーク, ニューヨーク, アメリカ合衆国

緯度: 40-42-04N, 経度: 074-00-32W, 海抜: 2m

現時点の気象観測

当レポートは33分前の00:56(UTC)に作成
北東の風 9kt、最大14ktの突風を伴う
気温 23°C
湿度 57%
気圧 1017 hPa
視程: 16.1km
高度4700ftの雲はほとんどない

METAR: KJRB 240056Z AUTO 04009G14KT 10SM FEW047 23/14 A3002 RMK AO2 SLP164 T02330144 PNO $

時間: 21:29 (01:29 UTC)


TAF: 見つかりません

4,000以上の空港の気象観測と天気予報(METAR報とTAF報)

利用可能な観測所は地図上に黄色い丸と赤い丸で示す。

丸の上にカーソルを重ねると観測所名を参照できる。

次にクリックすると気象観測と天気予報を参照できる。

マップの切り替え:黒色「×」印の緑ボタンをクリックして拡大、「-」印の緑ボタンをクリックして縮小、緑色の三角印をクリックして隣りの地図に切り替え


METAR-TAF: